createdAt,value
2019-05-09T00:00:00.845Z,80.15
2019-05-09T00:02:34.120Z,80.52
2019-05-09T00:05:06.018Z,80.16
2019-05-09T00:07:37.428Z,80.52
2019-05-09T00:10:09.528Z,80.19
2019-05-09T00:12:40.961Z,80.31
2019-05-09T00:15:13.635Z,80.49
2019-05-09T00:17:45.196Z,80.10
2019-05-09T00:20:24.103Z,80.09
2019-05-09T00:22:55.567Z,80.32
2019-05-09T00:25:26.820Z,80.36
2019-05-09T00:27:58.603Z,80.64
2019-05-09T00:30:49.660Z,80.61
2019-05-09T00:33:23.543Z,79.99
2019-05-09T00:35:56.150Z,80.50
2019-05-09T00:38:46.112Z,80.16
2019-05-09T00:41:17.466Z,80.49
2019-05-09T00:43:50.465Z,81.46
2019-05-09T00:46:23.696Z,81.34
2019-05-09T00:48:56.669Z,82.10
2019-05-09T00:51:28.019Z,83.03
2019-05-09T00:53:59.475Z,83.83
2019-05-09T00:56:33.174Z,85.24
2019-05-09T00:59:04.782Z,86.23
2019-05-09T01:01:36.123Z,86.85
2019-05-09T01:04:07.486Z,87.34
2019-05-09T01:06:38.884Z,87.92
2019-05-09T01:09:10.130Z,87.84
2019-05-09T01:11:43.819Z,88.01
2019-05-09T01:14:14.562Z,88.25
2019-05-09T01:16:45.963Z,88.73
2019-05-09T01:19:17.224Z,88.87
2019-05-09T01:21:48.537Z,89.07
2019-05-09T01:24:19.963Z,88.94
2019-05-09T01:26:51.454Z,89.49
2019-05-09T01:29:23.175Z,89.27
2019-05-09T01:31:56.320Z,89.40
2019-05-09T01:34:29.257Z,89.39
2019-05-09T01:37:07.643Z,89.79
2019-05-09T01:39:39.010Z,89.86
2019-05-09T01:42:10.235Z,89.99
2019-05-09T01:44:43.453Z,89.62
2019-05-09T01:47:14.540Z,90.00
2019-05-09T01:49:45.900Z,90.51
2019-05-09T01:52:17.216Z,90.20
2019-05-09T01:54:49.599Z,90.39
2019-05-09T01:57:23.128Z,90.24
2019-05-09T01:59:55.874Z,90.41
2019-05-09T02:02:27.471Z,90.09
2019-05-09T02:04:59.430Z,90.10
2019-05-09T02:07:33.102Z,89.71
2019-05-09T02:10:05.782Z,89.63
2019-05-09T02:12:37.121Z,89.75
2019-05-09T02:15:19.444Z,89.79
2019-05-09T02:18:01.264Z,90.02
2019-05-09T02:20:28.594Z,89.92
2019-05-09T02:23:00.059Z,89.70
2019-05-09T02:25:33.011Z,90.26
2019-05-09T02:28:04.415Z,90.17
2019-05-09T02:30:36.203Z,90.04
2019-05-09T02:33:07.777Z,90.30
2019-05-09T02:35:51.013Z,90.14
2019-05-09T02:38:12.385Z,90.61
2019-05-09T02:40:44.323Z,91.23
2019-05-09T02:43:18.484Z,91.66
2019-05-09T02:45:53.820Z,92.19
2019-05-09T02:48:25.441Z,92.30
2019-05-09T02:51:00.126Z,92.56
2019-05-09T02:53:30.100Z,92.88
2019-05-09T02:56:01.880Z,93.45
2019-05-09T02:58:53.606Z,93.69
2019-05-09T03:01:29.608Z,93.99
2019-05-09T03:04:01.108Z,94.33
2019-05-09T03:06:32.873Z,94.46
2019-05-09T03:09:08.835Z,94.51
2019-05-09T03:11:40.138Z,94.21
2019-05-09T03:14:11.550Z,94.29
2019-05-09T03:16:43.390Z,94.46
2019-05-09T03:19:15.004Z,94.52
2019-05-09T03:21:49.337Z,94.30
2019-05-09T03:24:20.875Z,94.33
2019-05-09T03:26:54.135Z,94.26
2019-05-09T03:29:29.242Z,94.43
2019-05-09T03:32:01.171Z,94.51
2019-05-09T03:34:32.758Z,94.36
2019-05-09T03:37:04.580Z,94.24
2019-05-09T03:39:37.726Z,94.28
2019-05-09T03:42:09.327Z,94.21
2019-05-09T03:44:40.987Z,94.07
2019-05-09T03:47:20.073Z,94.16
2019-05-09T03:50:08.537Z,94.12
2019-05-09T03:52:41.347Z,93.68
2019-05-09T03:55:14.650Z,93.77
2019-05-09T03:57:47.721Z,93.87
2019-05-09T04:00:19.701Z,93.86
2019-05-09T04:02:51.145Z,93.81
2019-05-09T04:05:22.820Z,93.82
2019-05-09T04:07:58.111Z,93.74
2019-05-09T04:10:29.594Z,94.35
2019-05-09T04:13:01.188Z,94.32
2019-05-09T04:15:32.905Z,94.23
2019-05-09T04:18:04.665Z,94.56
2019-05-09T04:20:37.729Z,94.73
2019-05-09T04:23:09.105Z,94.80
2019-05-09T04:25:42.498Z,94.96
2019-05-09T04:28:13.480Z,94.96
2019-05-09T04:30:45.097Z,95.17
2019-05-09T04:33:17.716Z,95.41
2019-05-09T04:35:49.331Z,95.43
2019-05-09T04:38:21.022Z,95.49
2019-05-09T04:40:52.845Z,95.68
2019-05-09T04:43:32.254Z,95.64
2019-05-09T04:45:59.341Z,95.67
2019-05-09T04:48:31.885Z,95.72
2019-05-09T04:51:07.583Z,95.91
2019-05-09T04:53:39.853Z,95.75
2019-05-09T04:56:13.327Z,95.67
2019-05-09T04:58:45.546Z,95.43
2019-05-09T05:01:34.917Z,95.51
2019-05-09T05:04:08.265Z,95.44
2019-05-09T05:06:40.559Z,95.37
2019-05-09T05:09:12.245Z,95.39
2019-05-09T05:11:46.517Z,95.51
2019-05-09T05:14:23.617Z,95.51
2019-05-09T05:17:04.405Z,95.64
2019-05-09T05:19:31.520Z,95.76
2019-05-09T05:22:04.605Z,96.06
2019-05-09T05:24:38.220Z,96.04
2019-05-09T05:27:10.170Z,95.91
2019-05-09T05:29:41.838Z,95.90
2019-05-09T05:32:17.712Z,95.96
2019-05-09T05:34:59.166Z,95.84
2019-05-09T05:37:32.052Z,95.78
2019-05-09T05:40:03.720Z,95.93
2019-05-09T05:42:38.562Z,95.86
2019-05-09T05:45:09.270Z,95.88
2019-05-09T05:47:48.617Z,95.94
2019-05-09T05:50:20.160Z,95.92
2019-05-09T05:52:51.610Z,96.01
2019-05-09T05:55:22.987Z,96.16
2019-05-09T05:57:54.725Z,96.30
2019-05-09T06:00:28.558Z,96.50
2019-05-09T06:03:00.002Z,96.78
2019-05-09T06:05:31.173Z,97.57
2019-05-09T06:08:02.511Z,97.77
2019-05-09T06:10:34.167Z,98.17
2019-05-09T06:13:05.373Z,98.97
2019-05-09T06:15:37.933Z,99.03
2019-05-09T06:18:09.406Z,98.99
2019-05-09T06:20:40.959Z,98.88
2019-05-09T06:23:12.467Z,98.91
2019-05-09T06:25:43.991Z,98.51
2019-05-09T06:28:15.617Z,98.17
2019-05-09T06:30:48.822Z,97.94
2019-05-09T06:33:20.518Z,97.65
2019-05-09T06:35:51.764Z,96.93
2019-05-09T06:38:22.970Z,97.16
2019-05-09T06:40:54.274Z,96.97
2019-05-09T06:43:29.053Z,96.41
2019-05-09T06:46:02.041Z,95.38
2019-05-09T06:48:34.534Z,94.89
2019-05-09T06:51:07.343Z,95.33
2019-05-09T06:53:38.845Z,94.80
2019-05-09T06:56:10.228Z,94.40
2019-05-09T06:58:42.319Z,93.79
2019-05-09T07:01:24.020Z,93.29
2019-05-09T07:04:13.320Z,93.00
2019-05-09T07:06:48.264Z,93.21
2019-05-09T07:09:21.369Z,93.56
2019-05-09T07:11:52.689Z,93.00
2019-05-09T07:14:32.439Z,92.62
2019-05-09T07:17:00.890Z,91.97
2019-05-09T07:19:32.293Z,92.45
2019-05-09T07:22:18.436Z,92.30
2019-05-09T07:25:07.623Z,91.74
2019-05-09T07:27:41.015Z,90.09
2019-05-09T07:30:30.385Z,88.06
2019-05-09T07:33:03.540Z,87.29
2019-05-09T07:35:35.028Z,87.57
2019-05-09T07:38:08.504Z,87.08
2019-05-09T07:40:39.273Z,86.95
2019-05-09T07:43:10.860Z,87.23
2019-05-09T07:45:44.216Z,87.16
2019-05-09T07:48:18.002Z,87.13
2019-05-09T07:50:48.285Z,87.76
2019-05-09T07:53:20.064Z,87.21
2019-05-09T07:55:51.587Z,87.22
2019-05-09T07:58:23.216Z,86.99
2019-05-09T08:00:58.241Z,87.16
2019-05-09T08:03:27.805Z,86.07
2019-05-09T08:05:59.285Z,85.93
2019-05-09T08:08:31.411Z,85.57
2019-05-09T08:11:03.272Z,84.11
2019-05-09T08:13:35.152Z,83.61
2019-05-09T08:16:08.171Z,84.76
2019-05-09T08:18:39.941Z,83.05
2019-05-09T08:21:11.942Z,84.14
2019-05-09T08:23:43.399Z,84.57
2019-05-09T08:26:15.020Z,83.97
2019-05-09T08:28:47.984Z,84.50
2019-05-09T08:31:19.553Z,83.75
2019-05-09T08:33:50.963Z,83.65
2019-05-09T08:36:22.452Z,84.17
2019-05-09T08:38:53.907Z,84.62
2019-05-09T08:41:25.253Z,84.54
2019-05-09T08:43:57.576Z,85.06
2019-05-09T08:46:28.981Z,85.50
2019-05-09T08:49:00.260Z,85.64
2019-05-09T08:52:04.582Z,85.98
2019-05-09T08:54:33.517Z,86.65
2019-05-09T08:57:07.467Z,85.92
2019-05-09T08:59:38.491Z,86.78
2019-05-09T09:02:15.307Z,86.59
2019-05-09T09:04:43.754Z,86.27
2019-05-09T09:07:15.502Z,85.55
2019-05-09T09:09:48.261Z,84.55
2019-05-09T09:12:30.454Z,84.65
2019-05-09T09:14:52.459Z,84.70
2019-05-09T09:17:23.666Z,84.68
2019-05-09T09:19:55.014Z,85.42
2019-05-09T09:22:28.416Z,86.51
2019-05-09T09:24:59.746Z,85.60
2019-05-09T09:27:33.263Z,85.55
2019-05-09T09:30:17.811Z,86.16
2019-05-09T09:32:39.234Z,85.87
2019-05-09T09:35:10.882Z,86.12
2019-05-09T09:37:48.603Z,85.57
2019-05-09T09:40:17.729Z,85.91
2019-05-09T09:42:49.113Z,85.07
2019-05-09T09:45:20.686Z,84.89
2019-05-09T09:47:52.168Z,83.94
2019-05-09T09:50:23.999Z,83.99
2019-05-09T09:52:58.447Z,84.37
2019-05-09T09:55:28.546Z,84.64
2019-05-09T09:58:01.017Z,84.20
2019-05-09T10:00:48.027Z,83.86
2019-05-09T10:03:19.520Z,84.17
2019-05-09T10:05:50.980Z,83.63
2019-05-09T10:08:22.731Z,83.35
2019-05-09T10:10:54.352Z,83.73
2019-05-09T10:13:28.398Z,84.15
2019-05-09T10:16:03.297Z,84.05
2019-05-09T10:18:42.322Z,83.29
2019-05-09T10:21:15.540Z,82.89
2019-05-09T10:23:48.363Z,83.13
2019-05-09T10:26:19.747Z,82.94
2019-05-09T10:28:51.204Z,82.85
2019-05-09T10:31:22.495Z,82.65
2019-05-09T10:33:54.101Z,81.85
2019-05-09T10:36:27.644Z,81.34
2019-05-09T10:38:58.793Z,81.43
2019-05-09T10:41:30.240Z,80.39
2019-05-09T10:44:03.698Z,79.32
2019-05-09T10:46:50.566Z,79.22
2019-05-09T10:49:10.393Z,77.04
2019-05-09T10:51:41.944Z,78.00
2019-05-09T10:54:13.532Z,79.54
2019-05-09T10:56:45.149Z,79.63
2019-05-09T10:59:18.301Z,79.23
2019-05-09T11:01:49.889Z,80.55
2019-05-09T11:04:21.459Z,79.67
2019-05-09T11:06:53.002Z,79.55
2019-05-09T11:09:24.587Z,79.40
2019-05-09T11:11:58.736Z,78.85
2019-05-09T11:14:37.218Z,79.00
2019-05-09T11:17:12.470Z,80.50
2019-05-09T11:19:38.653Z,79.80
2019-05-09T11:22:11.744Z,80.38
2019-05-09T11:24:48.182Z,80.18
2019-05-09T11:27:18.667Z,80.15
2019-05-09T11:29:49.935Z,79.99
2019-05-09T11:32:21.467Z,80.82
2019-05-09T11:34:53.101Z,79.62
2019-05-09T11:37:24.742Z,80.54
2019-05-09T11:39:58.011Z,78.86
2019-05-09T11:42:29.501Z,77.56
2019-05-09T11:45:01.052Z,78.32
2019-05-09T11:47:39.775Z,79.77
2019-05-09T11:50:08.846Z,81.28
2019-05-09T11:52:39.808Z,80.75
2019-05-09T11:55:28.785Z,81.91
2019-05-09T11:57:45.161Z,82.67
2019-05-09T12:00:17.997Z,82.61
2019-05-09T12:02:50.082Z,83.17
2019-05-09T12:05:21.665Z,83.76
2019-05-09T12:07:53.440Z,83.34
2019-05-09T12:10:25.124Z,84.85
2019-05-09T12:12:57.635Z,84.55
2019-05-09T12:15:29.328Z,85.63
2019-05-09T12:18:07.588Z,85.84
2019-05-09T12:20:34.271Z,85.47
2019-05-09T12:23:07.770Z,84.65
2019-05-09T12:25:39.134Z,85.67
2019-05-09T12:28:11.004Z,86.49
2019-05-09T12:30:42.570Z,85.87
2019-05-09T12:33:14.191Z,86.86
2019-05-09T12:35:47.770Z,86.48
2019-05-09T12:38:18.640Z,86.75
2019-05-09T12:40:50.223Z,85.87
2019-05-09T12:43:21.838Z,85.99
2019-05-09T12:45:53.497Z,87.12
2019-05-09T12:48:24.948Z,87.11
2019-05-09T12:50:58.383Z,87.34
2019-05-09T12:53:29.383Z,87.23
2019-05-09T12:56:01.781Z,86.87
2019-05-09T12:58:33.311Z,84.68
2019-05-09T13:01:07.328Z,83.46
2019-05-09T13:03:38.367Z,84.11
2019-05-09T13:06:09.981Z,84.64
2019-05-09T13:08:41.586Z,85.37
2019-05-09T13:11:13.233Z,84.82
2019-05-09T13:13:44.599Z,85.16
2019-05-09T13:16:20.525Z,86.62
2019-05-09T13:19:02.967Z,87.11
2019-05-09T13:21:34.566Z,86.83
2019-05-09T13:24:08.363Z,86.91
2019-05-09T13:26:39.809Z,86.97
2019-05-09T13:29:12.545Z,87.37
2019-05-09T13:31:44.062Z,86.87
2019-05-09T13:34:18.575Z,86.73
2019-05-09T13:36:49.080Z,87.29
2019-05-09T13:39:20.620Z,86.34
2019-05-09T13:41:52.152Z,85.98
2019-05-09T13:44:23.730Z,86.90
2019-05-09T13:46:55.399Z,87.50
2019-05-09T13:49:28.623Z,87.44
2019-05-09T13:52:04.624Z,87.92
2019-05-09T13:54:33.205Z,86.96
2019-05-09T13:57:04.646Z,87.36
2019-05-09T13:59:37.441Z,87.63
2019-05-09T14:02:09.232Z,86.67
2019-05-09T14:04:40.949Z,86.68
2019-05-09T14:07:13.111Z,86.29
2019-05-09T14:09:44.918Z,85.40
2019-05-09T14:12:17.532Z,84.77
2019-05-09T14:14:49.657Z,85.10
2019-05-09T14:17:44.174Z,84.63
2019-05-09T14:19:55.144Z,84.89
2019-05-09T14:22:27.056Z,84.68
2019-05-09T14:24:58.686Z,84.05
2019-05-09T14:27:30.458Z,83.89
2019-05-09T14:30:02.110Z,84.52
2019-05-09T14:32:35.186Z,84.89
2019-05-09T14:35:08.512Z,85.71
2019-05-09T14:37:45.685Z,85.14
2019-05-09T14:40:18.705Z,84.57
2019-05-09T14:42:50.127Z,84.82
2019-05-09T14:45:21.819Z,84.64
2019-05-09T14:47:53.781Z,84.48
2019-05-09T14:50:25.525Z,84.56
2019-05-09T14:52:58.408Z,84.55
2019-05-09T14:55:30.179Z,84.58
2019-05-09T14:58:02.006Z,84.47
2019-05-09T15:00:33.454Z,84.17
2019-05-09T15:03:05.069Z,82.96
2019-05-09T15:05:37.903Z,82.16
2019-05-09T15:08:09.799Z,81.36
2019-05-09T15:10:41.323Z,79.89
2019-05-09T15:13:13.188Z,80.13
2019-05-09T15:15:44.431Z,80.39
2019-05-09T15:18:17.596Z,80.00
2019-05-09T15:20:49.245Z,79.84
2019-05-09T15:23:20.877Z,80.60
2019-05-09T15:25:52.718Z,80.52
2019-05-09T15:28:24.738Z,80.55
2019-05-09T15:30:59.110Z,80.89
2019-05-09T15:33:29.438Z,81.06
2019-05-09T15:36:01.039Z,81.36
2019-05-09T15:38:32.810Z,80.80
2019-05-09T15:41:04.403Z,81.39
2019-05-09T15:43:38.144Z,81.11
2019-05-09T15:46:11.414Z,80.59
2019-05-09T15:48:42.701Z,80.23
2019-05-09T15:51:14.590Z,80.17
2019-05-09T15:53:48.556Z,80.45
2019-05-09T15:56:19.715Z,80.79
2019-05-09T15:58:51.178Z,80.99
2019-05-09T16:01:22.804Z,80.91
2019-05-09T16:03:54.488Z,80.90
2019-05-09T16:06:32.637Z,81.61
2019-05-09T16:08:58.741Z,81.69
2019-05-09T16:11:30.611Z,81.31
2019-05-09T16:14:03.168Z,81.42
2019-05-09T16:16:34.806Z,80.97
2019-05-09T16:19:08.919Z,80.95
2019-05-09T16:21:39.754Z,80.66
2019-05-09T16:24:11.215Z,81.12
2019-05-09T16:26:42.866Z,81.23
2019-05-09T16:29:14.416Z,81.66
2019-05-09T16:31:48.046Z,82.40
2019-05-09T16:34:19.572Z,82.96
2019-05-09T16:36:51.170Z,83.43
2019-05-09T16:39:22.886Z,83.22
2019-05-09T16:41:54.663Z,83.60
2019-05-09T16:44:26.208Z,83.54
2019-05-09T16:46:57.846Z,83.20
2019-05-09T16:49:29.559Z,82.65
2019-05-09T16:52:00.805Z,81.86
2019-05-09T16:54:34.047Z,80.90
2019-05-09T16:57:08.079Z,80.49
2019-05-09T16:59:38.980Z,79.36
2019-05-09T17:02:21.829Z,80.25
2019-05-09T17:04:43.852Z,80.68
2019-05-09T17:07:15.407Z,81.18
2019-05-09T17:09:48.489Z,81.52
2019-05-09T17:12:20.250Z,81.84
2019-05-09T17:14:51.600Z,82.28
2019-05-09T17:17:23.255Z,82.84
2019-05-09T17:19:57.200Z,82.68
2019-05-09T17:22:38.113Z,82.01
2019-05-09T17:25:09.517Z,80.72
2019-05-09T17:27:41.451Z,80.12
2019-05-09T17:30:28.630Z,79.67
2019-05-09T17:33:16.423Z,79.23
2019-05-09T17:38:47.827Z,79.68
2019-05-09T17:41:20.683Z,80.21
2019-05-09T17:43:52.995Z,80.26
2019-05-09T17:46:27.018Z,80.68
2019-05-09T17:48:58.408Z,81.29
2019-05-09T17:51:35.698Z,81.46
2019-05-09T17:54:03.034Z,81.87
2019-05-09T17:56:34.490Z,82.08
2019-05-09T17:59:08.347Z,82.52
2019-05-09T18:01:39.441Z,83.15
2019-05-09T18:04:11.194Z,83.68
2019-05-09T18:06:42.597Z,84.04
2019-05-09T18:09:14.225Z,83.94
2019-05-09T18:11:48.136Z,84.06
2019-05-09T18:14:19.172Z,84.01
2019-05-09T18:16:50.911Z,83.73
2019-05-09T18:19:22.462Z,84.11
2019-05-09T18:21:54.017Z,83.96
2019-05-09T18:24:25.215Z,83.51
2019-05-09T18:26:58.273Z,84.58
2019-05-09T18:29:29.607Z,83.89
2019-05-09T18:32:08.712Z,83.82
2019-05-09T18:34:39.855Z,83.70
2019-05-09T18:37:11.330Z,83.53
2019-05-09T18:39:42.745Z,83.27
2019-05-09T18:42:14.235Z,82.99
2019-05-09T18:44:47.503Z,82.81
2019-05-09T18:47:18.591Z,83.02
2019-05-09T18:49:49.878Z,82.93
2019-05-09T18:52:21.204Z,82.99
2019-05-09T18:54:52.387Z,83.05
2019-05-09T18:57:23.698Z,83.09
2019-05-09T18:59:56.210Z,83.38
2019-05-09T19:02:27.560Z,83.20
2019-05-09T19:04:58.996Z,83.48
2019-05-09T19:07:30.506Z,83.13
2019-05-09T19:10:02.131Z,83.73
2019-05-09T19:12:35.120Z,83.34
2019-05-09T19:15:09.322Z,83.10
2019-05-09T19:17:44.829Z,83.00
2019-05-09T19:20:23.803Z,83.08
2019-05-09T19:22:55.009Z,82.90
2019-05-09T19:25:26.207Z,83.73
2019-05-09T19:27:57.545Z,83.70
2019-05-09T19:30:29.134Z,83.80
2019-05-09T19:33:00.568Z,84.27
2019-05-09T19:35:32.069Z,84.14
2019-05-09T19:38:03.483Z,84.10
2019-05-09T19:40:34.760Z,84.37
2019-05-09T19:43:06.123Z,84.52
2019-05-09T19:45:38.542Z,84.23
2019-05-09T19:48:10.076Z,84.76
2019-05-09T19:50:41.598Z,84.66
2019-05-09T19:53:13.213Z,84.78
2019-05-09T19:55:44.949Z,84.97
2019-05-09T19:58:16.516Z,84.68
2019-05-09T20:00:56.452Z,84.91
2019-05-09T20:03:59.617Z,85.00
2019-05-09T20:06:28.026Z,85.18
2019-05-09T20:08:59.788Z,85.22
2019-05-09T20:11:33.311Z,85.51
2019-05-09T20:14:43.269Z,85.58
2019-05-09T20:17:14.552Z,85.98
2019-05-09T20:19:46.235Z,86.11
2019-05-09T20:22:21.397Z,86.44
2019-05-09T20:24:55.226Z,86.61
2019-05-09T20:27:26.906Z,86.41
2019-05-09T20:29:59.827Z,86.27
2019-05-09T20:32:31.156Z,86.12
2019-05-09T20:35:02.647Z,86.10
2019-05-09T20:37:34.514Z,86.15
2019-05-09T20:40:20.835Z,86.24
2019-05-09T20:42:54.702Z,86.56
2019-05-09T20:45:26.564Z,86.81
2019-05-09T20:47:58.538Z,87.06
2019-05-09T20:50:30.641Z,87.02
2019-05-09T20:53:09.618Z,87.47
2019-05-09T20:55:35.972Z,87.58
2019-05-09T20:58:07.653Z,87.35
2019-05-09T21:00:39.078Z,87.54
2019-05-09T21:03:11.636Z,87.79
2019-05-09T21:05:44.040Z,88.00
2019-05-09T21:08:15.437Z,88.07
2019-05-09T21:10:47.025Z,88.46
2019-05-09T21:13:18.609Z,88.56
2019-05-09T21:15:50.094Z,88.67
2019-05-09T21:18:21.711Z,88.84
2019-05-09T21:20:53.299Z,88.84
2019-05-09T21:23:25.221Z,88.63
2019-05-09T21:25:56.785Z,88.83
2019-05-09T21:28:28.391Z,88.84
2019-05-09T21:31:00.307Z,88.88
2019-05-09T21:33:31.911Z,88.67
2019-05-09T21:36:03.222Z,88.67
2019-05-09T21:38:34.655Z,88.27
2019-05-09T21:41:06.103Z,88.42
2019-05-09T21:43:37.478Z,88.31
2019-05-09T21:46:08.905Z,88.17
2019-05-09T21:48:40.267Z,87.66
2019-05-09T21:51:11.698Z,87.58
2019-05-09T21:53:43.173Z,87.48
2019-05-09T21:56:14.607Z,87.06
2019-05-09T21:58:46.087Z,87.36
2019-05-09T22:01:19.210Z,87.50
2019-05-09T22:03:51.728Z,87.60
2019-05-09T22:06:23.213Z,87.01
2019-05-09T22:08:54.667Z,87.12
2019-05-09T22:11:26.180Z,86.77
2019-05-09T22:13:57.645Z,86.98
2019-05-09T22:16:29.072Z,86.81
2019-05-09T22:19:00.431Z,87.09
2019-05-09T22:21:31.981Z,87.07
2019-05-09T22:24:03.449Z,87.04
2019-05-09T22:26:34.888Z,87.03
2019-05-09T22:29:06.241Z,87.23
2019-05-09T22:31:37.429Z,87.21
2019-05-09T22:34:08.825Z,87.11
2019-05-09T22:36:40.059Z,87.24
2019-05-09T22:39:11.493Z,87.42
2019-05-09T22:41:42.953Z,87.21
2019-05-09T22:44:14.444Z,86.62
2019-05-09T22:46:45.872Z,86.10
2019-05-09T22:49:17.260Z,85.79
2019-05-09T22:51:48.581Z,85.41
2019-05-09T22:54:21.209Z,85.62
2019-05-09T22:56:52.911Z,85.65
2019-05-09T22:59:24.574Z,85.82
2019-05-09T23:01:56.297Z,86.02
2019-05-09T23:04:27.950Z,85.84
2019-05-09T23:06:59.622Z,85.64
2019-05-09T23:09:31.268Z,85.81
2019-05-09T23:12:02.818Z,85.82
2019-05-09T23:14:34.165Z,85.58
2019-05-09T23:17:05.809Z,85.50
2019-05-09T23:19:37.718Z,85.42
2019-05-09T23:22:10.100Z,85.40
2019-05-09T23:24:44.523Z,85.56
2019-05-09T23:27:16.271Z,85.67
2019-05-09T23:29:47.684Z,85.55
2019-05-09T23:32:32.462Z,85.81
2019-05-09T23:35:04.244Z,85.69
2019-05-09T23:37:35.695Z,85.59
2019-05-09T23:40:07.859Z,85.82
2019-05-09T23:42:39.081Z,85.75
2019-05-09T23:45:10.490Z,85.55
2019-05-09T23:47:41.840Z,86.08
2019-05-09T23:50:13.487Z,86.05
2019-05-09T23:52:44.829Z,85.53
2019-05-09T23:55:35.479Z,85.45
2019-05-09T23:58:25.116Z,85.57
